Time;durP1;ratioP1;P1;durP2;ratioP2;P2;SDS_P1;SDS_P2;PMS_P1;PMS_P2;Temp;Humidity;BMP_temperature;BMP_pressure;BME280_temperature;BME280_humidity;BME280_pressure;Samples;Min_cycle;Max_cycle;Signal;HPM_P1;HPM_P2
2022/05/18 00:01:49;;;;;;;25.05;16.27;;;;;;;;;;5025442;28;20032;-45
2022/05/18 00:04:16;;;;;;;15.02;9.73;;;;;;;;;;5047709;28;20036;-46
2022/05/18 00:06:42;;;;;;;13.57;9.38;;;;;;;;;;5075360;28;20025;-45
2022/05/18 00:09:08;;;;;;;24.17;15.07;;;;;;;;;;5075198;28;20104;-44
2022/05/18 00:11:34;;;;;;;12.68;9.65;;;;;;;;;;5074899;28;20037;-46
2022/05/18 00:14:00;;;;;;;12.15;7.65;;;;;;;;;;5075382;28;20036;-46
2022/05/18 00:16:27;;;;;;;16.30;7.03;;;;;;;;;;5075176;28;20077;-46
2022/05/18 00:18:53;;;;;;;7.28;5.68;;;;;;;;;;5075429;28;20412;-44
2022/05/18 00:21:20;;;;;;;7.07;5.82;;;;;;;;;;5056925;28;20039;-44
2022/05/18 00:23:46;;;;;;;8.52;6.13;;;;;;;;;;5073033;28;20045;-46
2022/05/18 00:26:12;;;;;;;11.20;7.40;;;;;;;;;;5074887;28;20457;-45
2022/05/18 00:28:38;;;;;;;14.73;7.25;;;;;;;;;;5075053;28;20024;-45
2022/05/18 00:31:04;;;;;;;9.88;7.45;;;;;;;;;;5074554;28;20514;-46
2022/05/18 00:33:33;;;;;;;7.47;6.35;;;;;;;;;;5074837;28;20387;-45
2022/05/18 00:35:59;;;;;;;9.40;6.00;;;;;;;;;;5074807;28;20020;-45
2022/05/18 00:38:26;;;;;;;8.15;6.18;;;;;;;;;;5074626;28;20017;-46
2022/05/18 00:40:53;;;;;;;12.35;6.88;;;;;;;;;;5074579;28;20021;-47
2022/05/18 00:43:31;;;;;;;10.20;6.63;;;;;;;;;;5073801;28;20047;-46
2022/05/18 00:46:02;;;;;;;8.48;6.38;;;;;;;;;;5074681;28;20090;-46
2022/05/18 00:48:29;;;;;;;7.68;6.53;;;;;;;;;;5074574;28;20045;-45
2022/05/18 00:50:57;;;;;;;10.77;7.07;;;;;;;;;;5074441;28;20078;-46
2022/05/18 00:53:27;;;;;;;8.25;6.60;;;;;;;;;;5055809;28;20380;-46
2022/05/18 00:55:56;;;;;;;8.60;6.82;;;;;;;;;;5074597;28;20065;-45
2022/05/18 00:58:28;;;;;;;12.93;6.82;;;;;;;;;;5074595;28;20421;-44
2022/05/18 01:00:54;;;;;;;7.30;6.60;;;;;;;;;;5074315;28;20029;-46
2022/05/18 01:03:24;;;;;;;8.23;6.35;;;;;;;;;;5074079;28;20032;-45
2022/05/18 01:05:54;;;;;;;9.63;6.47;;;;;;;;;;5074301;28;20017;-46
2022/05/18 01:08:30;;;;;;;12.63;6.93;;;;;;;;;;5074246;28;20029;-45
2022/05/18 01:10:56;;;;;;;8.68;7.25;;;;;;;;;;5073812;28;20098;-46
2022/05/18 01:13:22;;;;;;;13.57;8.07;;;;;;;;;;5074083;28;20447;-44
2022/05/18 01:15:48;;;;;;;10.38;7.20;;;;;;;;;;5073994;28;20078;-46
2022/05/18 01:18:14;;;;;;;25.42;17.85;;;;;;;;;;5074158;28;20112;-45
2022/05/18 01:20:45;;;;;;;27.30;21.00;;;;;;;;;;5073758;28;20060;-48
2022/05/18 01:23:24;;;;;;;16.57;13.97;;;;;;;;;;5073604;28;20039;-46
2022/05/18 01:25:50;;;;;;;15.38;9.05;;;;;;;;;;5073920;28;20082;-45
2022/05/18 01:28:16;;;;;;;9.93;8.07;;;;;;;;;;5073718;28;20025;-45
2022/05/18 01:30:46;;;;;;;9.13;7.53;;;;;;;;;;5073835;28;20048;-45
2022/05/18 01:33:13;;;;;;;13.98;8.95;;;;;;;;;;5073556;28;20086;-44
2022/05/18 01:35:44;;;;;;;12.30;7.75;;;;;;;;;;5073922;28;20020;-46
2022/05/18 01:38:13;;;;;;;9.33;7.20;;;;;;;;;;5073722;28;20518;-45
2022/05/18 01:40:51;;;;;;;7.35;5.57;;;;;;;;;;5073524;28;20253;-46
2022/05/18 01:43:21;;;;;;;9.05;6.35;;;;;;;;;;5073462;28;20064;-44
2022/05/18 01:45:52;;;;;;;12.48;5.63;;;;;;;;;;5073445;28;20028;-45
2022/05/18 01:48:19;;;;;;;10.70;5.33;;;;;;;;;;5073635;28;20029;-45
2022/05/18 01:50:46;;;;;;;6.60;4.43;;;;;;;;;;5073517;28;20103;-45
2022/05/18 01:53:12;;;;;;;9.75;5.18;;;;;;;;;;5073613;28;20086;-45
2022/05/18 01:55:38;;;;;;;7.45;4.30;;;;;;;;;;5073495;28;20573;-45
2022/05/18 01:58:04;;;;;;;10.65;4.75;;;;;;;;;;5073536;28;20051;-45
2022/05/18 02:00:31;;;;;;;9.02;4.75;;;;;;;;;;5073159;28;20024;-45
2022/05/18 02:02:58;;;;;;;8.35;6.00;;;;;;;;;;5073341;28;20047;-46
2022/05/18 02:05:24;;;;;;;14.68;8.68;;;;;;;;;;5073608;28;20027;-46
2022/05/18 02:07:50;;;;;;;8.63;6.18;;;;;;;;;;5073438;28;20071;-44
2022/05/18 02:10:18;;;;;;;7.60;5.00;;;;;;;;;;5073205;28;20105;-44
2022/05/18 02:12:45;;;;;;;8.00;5.05;;;;;;;;;;5073236;28;20141;-44
2022/05/18 02:15:11;;;;;;;8.20;4.47;;;;;;;;;;5073227;28;20547;-45
2022/05/18 02:17:38;;;;;;;11.68;4.22;;;;;;;;;;5073273;28;20025;-44
2022/05/18 02:20:05;;;;;;;5.35;3.67;;;;;;;;;;5072951;28;20029;-45
2022/05/18 02:22:31;;;;;;;12.48;4.38;;;;;;;;;;5073422;28;20043;-45
2022/05/18 02:25:00;;;;;;;6.80;3.70;;;;;;;;;;5073250;28;20025;-45
2022/05/18 02:27:26;;;;;;;11.32;3.88;;;;;;;;;;5073097;28;20022;-44
2022/05/18 02:29:52;;;;;;;8.10;3.75;;;;;;;;;;5073003;28;20028;-45
2022/05/18 02:32:18;;;;;;;6.95;4.10;;;;;;;;;;5073467;28;20024;-45
2022/05/18 02:34:44;;;;;;;14.27;9.63;;;;;;;;;;5075093;28;20024;-44
2022/05/18 02:37:10;;;;;;;13.02;9.23;;;;;;;;;;5077214;28;20028;-44
2022/05/18 02:39:37;;;;;;;10.85;5.63;;;;;;;;;;5077174;28;20103;-44
2022/05/18 02:42:03;;;;;;;7.60;3.90;;;;;;;;;;5077003;28;20460;-44
2022/05/18 02:44:29;;;;;;;5.22;3.67;;;;;;;;;;5076891;28;20029;-44
2022/05/18 02:46:59;;;;;;;5.82;3.90;;;;;;;;;;5076985;28;20484;-45
2022/05/18 02:49:25;;;;;;;6.75;3.47;;;;;;;;;;5077120;28;20028;-45
2022/05/18 02:51:51;;;;;;;6.80;3.70;;;;;;;;;;5076534;28;20422;-45
2022/05/18 02:57:04;;;;;;;4.55;3.35;;;;;;;;;;5056807;28;20032;-44
2022/05/18 02:59:31;;;;;;;5.05;3.83;;;;;;;;;;5056702;28;20353;-44
2022/05/18 03:01:57;;;;;;;5.07;2.90;;;;;;;;;;5056719;28;20029;-44
2022/05/18 03:04:23;;;;;;;5.30;3.40;;;;;;;;;;5056476;28;20029;-46
2022/05/18 03:06:49;;;;;;;8.38;3.65;;;;;;;;;;5056554;28;20021;-44
2022/05/18 03:09:17;;;;;;;6.95;3.72;;;;;;;;;;5056398;28;20488;-44
2022/05/18 03:11:44;;;;;;;5.82;3.65;;;;;;;;;;5056105;28;20053;-45
2022/05/18 03:14:10;;;;;;;8.30;3.70;;;;;;;;;;5056623;28;20028;-44
2022/05/18 03:16:38;;;;;;;5.10;3.20;;;;;;;;;;5056617;28;20028;-45
2022/05/18 03:19:04;;;;;;;4.53;3.38;;;;;;;;;;5056606;28;20477;-45
2022/05/18 03:24:15;;;;;;;5.00;3.42;;;;;;;;;;5056726;28;20055;-44
2022/05/18 03:26:41;;;;;;;6.03;3.47;;;;;;;;;;5055973;28;20025;-45
2022/05/18 03:29:12;;;;;;;5.43;3.30;;;;;;;;;;5056020;28;20025;-46
2022/05/18 03:31:39;;;;;;;4.50;3.45;;;;;;;;;;5056321;28;20515;-45
2022/05/18 03:34:05;;;;;;;3.38;2.90;;;;;;;;;;5056124;28;20028;-44
2022/05/18 03:36:32;;;;;;;5.53;2.90;;;;;;;;;;5056004;28;20416;-46
2022/05/18 03:38:58;;;;;;;4.43;3.22;;;;;;;;;;5055919;28;20032;-46
2022/05/18 03:41:24;;;;;;;5.53;2.78;;;;;;;;;;5055808;28;20452;-45
2022/05/18 03:43:51;;;;;;;5.78;3.30;;;;;;;;;;5055755;28;20125;-45
2022/05/18 03:46:17;;;;;;;5.10;2.90;;;;;;;;;;5055148;28;20473;-45
2022/05/18 03:48:43;;;;;;;7.43;3.15;;;;;;;;;;5055667;28;20086;-44
2022/05/18 03:51:11;;;;;;;6.50;2.88;;;;;;;;;;5055607;28;20017;-46
2022/05/18 03:53:37;;;;;;;5.47;2.85;;;;;;;;;;5055748;28;20064;-46
2022/05/18 03:56:04;;;;;;;6.65;3.05;;;;;;;;;;5055644;28;20461;-46
2022/05/18 03:58:30;;;;;;;4.40;2.80;;;;;;;;;;5055700;28;20032;-49
2022/05/18 04:01:00;;;;;;;5.60;2.80;;;;;;;;;;5055515;28;20142;-45
2022/05/18 04:03:27;;;;;;;8.00;2.58;;;;;;;;;;5055252;28;20116;-45
2022/05/18 04:05:53;;;;;;;5.78;2.97;;;;;;;;;;5055382;28;20493;-48
2022/05/18 04:08:20;;;;;;;8.52;3.08;;;;;;;;;;5055381;28;20033;-53
2022/05/18 04:10:48;;;;;;;5.38;2.63;;;;;;;;;;5055023;28;20040;-46
2022/05/18 04:13:18;;;;;;;4.10;2.50;;;;;;;;;;5055175;28;20021;-45
2022/05/18 04:15:44;;;;;;;4.22;2.67;;;;;;;;;;5055161;28;20024;-45
2022/05/18 04:18:11;;;;;;;13.20;3.53;;;;;;;;;;5055374;28;20040;-46
2022/05/18 04:20:38;;;;;;;5.88;2.90;;;;;;;;;;5055118;28;20067;-46
2022/05/18 04:23:05;;;;;;;3.95;2.38;;;;;;;;;;5054927;28;20047;-46
2022/05/18 04:25:31;;;;;;;5.82;2.35;;;;;;;;;;5054881;28;20032;-45
2022/05/18 04:27:57;;;;;;;5.63;2.53;;;;;;;;;;5054933;28;20033;-47
2022/05/18 04:30:25;;;;;;;18.88;12.38;;;;;;;;;;5054610;28;20029;-46
2022/05/18 04:32:54;;;;;;;19.95;13.02;;;;;;;;;;5054896;28;20033;-46
2022/05/18 04:35:22;;;;;;;28.65;19.88;;;;;;;;;;5054802;28;20024;-46
2022/05/18 04:37:48;;;;;;;11.65;6.43;;;;;;;;;;5054854;28;20025;-45
2022/05/18 04:40:15;;;;;;;7.97;3.95;;;;;;;;;;5054627;28;20031;-45
2022/05/18 04:42:41;;;;;;;5.68;3.05;;;;;;;;;;5054732;28;20029;-45
2022/05/18 04:45:08;;;;;;;7.38;3.03;;;;;;;;;;5054700;28;20017;-45
2022/05/18 04:47:34;;;;;;;6.70;2.60;;;;;;;;;;5054654;28;20453;-45
2022/05/18 04:50:01;;;;;;;4.65;2.45;;;;;;;;;;5054357;28;20033;-45
2022/05/18 04:52:28;;;;;;;5.00;1.88;;;;;;;;;;5054346;28;20021;-46
2022/05/18 04:54:57;;;;;;;7.65;2.20;;;;;;;;;;5054330;28;20029;-43
2022/05/18 04:57:23;;;;;;;3.55;2.20;;;;;;;;;;5053375;28;20024;-44
2022/05/18 04:59:49;;;;;;;6.68;3.35;;;;;;;;;;5054234;28;20105;-44
2022/05/18 05:02:16;;;;;;;31.10;15.10;;;;;;;;;;5054100;28;20032;-44
2022/05/18 05:04:42;;;;;;;24.88;15.70;;;;;;;;;;5053726;28;20033;-45
2022/05/18 05:07:09;;;;;;;27.48;16.25;;;;;;;;;;5051205;28;20108;-45
2022/05/18 05:09:35;;;;;;;10.82;6.25;;;;;;;;;;5053260;28;20029;-46
2022/05/18 05:12:01;;;;;;;8.63;4.72;;;;;;;;;;5053885;28;20507;-47
2022/05/18 05:14:30;;;;;;;10.75;3.70;;;;;;;;;;5054112;28;20029;-45
2022/05/18 05:16:56;;;;;;;6.10;3.50;;;;;;;;;;5054361;28;20024;-45
2022/05/18 05:19:22;;;;;;;10.45;5.60;;;;;;;;;;5054197;28;20060;-46
2022/05/18 05:21:48;;;;;;;10.85;3.90;;;;;;;;;;5053907;28;20079;-45
2022/05/18 05:24:15;;;;;;;16.15;4.88;;;;;;;;;;5053731;28;20043;-45
2022/05/18 05:26:42;;;;;;;7.93;4.40;;;;;;;;;;5054052;28;20406;-44
2022/05/18 05:29:08;;;;;;;5.28;2.80;;;;;;;;;;5053717;28;20029;-44
2022/05/18 05:31:35;;;;;;;7.90;2.28;;;;;;;;;;5053732;28;20028;-45
2022/05/18 05:34:01;;;;;;;4.88;2.10;;;;;;;;;;5053727;28;20054;-45
2022/05/18 05:36:27;;;;;;;10.98;2.78;;;;;;;;;;5053937;28;20061;-45
2022/05/18 05:38:53;;;;;;;4.30;2.28;;;;;;;;;;5053585;28;20465;-44
2022/05/18 05:41:20;;;;;;;3.33;1.65;;;;;;;;;;5053806;28;20032;-47
2022/05/18 05:43:46;;;;;;;2.67;1.80;;;;;;;;;;5053691;28;20078;-45
2022/05/18 05:46:17;;;;;;;9.88;1.95;;;;;;;;;;5053582;28;20020;-44
2022/05/18 05:48:44;;;;;;;3.55;1.52;;;;;;;;;;5053338;28;20017;-45
2022/05/18 05:51:13;;;;;;;7.57;1.50;;;;;;;;;;5053280;28;20405;-45
2022/05/18 05:53:45;;;;;;;9.43;4.40;;;;;;;;;;5053287;28;20091;-43
2022/05/18 05:56:15;;;;;;;5.93;1.65;;;;;;;;;;5053456;28;20389;-42
2022/05/18 05:58:43;;;;;;;6.78;2.33;;;;;;;;;;5053336;28;20567;-43
2022/05/18 06:01:10;;;;;;;13.60;8.55;;;;;;;;;;5053342;28;20079;-44
2022/05/18 06:03:36;;;;;;;9.52;4.55;;;;;;;;;;5053285;28;20067;-45
2022/05/18 06:06:03;;;;;;;6.85;2.83;;;;;;;;;;5053133;28;20426;-45
2022/05/18 06:08:30;;;;;;;6.07;3.58;;;;;;;;;;5052951;28;20031;-46
2022/05/18 06:10:56;;;;;;;8.25;2.90;;;;;;;;;;5052992;28;20099;-46
2022/05/18 06:13:22;;;;;;;10.73;4.03;;;;;;;;;;5053154;28;20477;-46
2022/05/18 06:15:50;;;;;;;9.30;3.10;;;;;;;;;;5053436;28;20025;-46
2022/05/18 06:18:16;;;;;;;4.05;1.15;;;;;;;;;;5053321;28;20029;-45
2022/05/18 06:20:44;;;;;;;4.18;2.20;;;;;;;;;;5053153;28;20059;-45
2022/05/18 06:23:11;;;;;;;2.70;1.50;;;;;;;;;;5052810;28;20033;-45
2022/05/18 06:25:37;;;;;;;3.03;1.40;;;;;;;;;;5053332;28;20021;-46
2022/05/18 06:28:04;;;;;;;5.55;1.50;;;;;;;;;;5035092;28;20037;-45
2022/05/18 06:30:30;;;;;;;5.45;1.50;;;;;;;;;;5053136;28;20516;-45
2022/05/18 06:32:56;;;;;;;2.45;1.40;;;;;;;;;;5052892;28;20032;-45
2022/05/18 06:35:22;;;;;;;3.33;2.35;;;;;;;;;;5053091;28;20388;-44
2022/05/18 06:37:51;;;;;;;3.38;1.10;;;;;;;;;;5035734;28;20101;-45
2022/05/18 06:40:18;;;;;;;16.55;1.88;;;;;;;;;;5035008;28;20041;-43
2022/05/18 06:42:44;;;;;;;11.88;7.47;;;;;;;;;;5052926;28;20044;-46
2022/05/18 06:45:11;;;;;;;9.30;4.82;;;;;;;;;;5052958;28;20491;-46
2022/05/18 06:47:38;;;;;;;7.95;4.70;;;;;;;;;;5053025;28;20033;-46
2022/05/18 06:50:05;;;;;;;5.45;3.50;;;;;;;;;;5052933;28;20029;-45
2022/05/18 06:52:31;;;;;;;24.58;9.93;;;;;;;;;;5052705;28;20036;-45
2022/05/18 06:54:57;;;;;;;7.63;1.85;;;;;;;;;;5052879;28;20500;-47
2022/05/18 06:57:23;;;;;;;8.32;3.03;;;;;;;;;;5052825;28;20148;-46
2022/05/18 06:59:49;;;;;;;7.72;3.92;;;;;;;;;;5052766;28;20025;-44
2022/05/18 07:02:15;;;;;;;16.23;8.13;;;;;;;;;;5052708;28;20025;-45
2022/05/18 07:04:41;;;;;;;4.50;1.90;;;;;;;;;;5052988;28;20384;-44
2022/05/18 07:07:07;;;;;;;7.63;4.35;;;;;;;;;;5052653;28;20102;-44
2022/05/18 07:09:33;;;;;;;39.03;27.95;;;;;;;;;;5052664;28;20028;-44
2022/05/18 07:12:00;;;;;;;42.60;25.65;;;;;;;;;;5052809;28;20071;-45
2022/05/18 07:14:27;;;;;;;10.18;4.07;;;;;;;;;;5052735;28;20074;-45
2022/05/18 07:16:53;;;;;;;16.67;6.72;;;;;;;;;;5052731;28;20025;-46
2022/05/18 07:19:20;;;;;;;6.32;3.25;;;;;;;;;;5052972;28;20074;-45
2022/05/18 07:21:49;;;;;;;7.00;2.47;;;;;;;;;;5055472;28;20033;-45
2022/05/18 07:24:16;;;;;;;3.15;1.40;;;;;;;;;;5056168;28;20033;-46
2022/05/18 07:26:42;;;;;;;3.00;1.10;;;;;;;;;;5056254;28;20112;-45
2022/05/18 07:29:11;;;;;;;2.65;1.20;;;;;;;;;;5056202;28;20029;-42
2022/05/18 07:34:22;;;;;;;7.68;2.42;;;;;;;;;;5056498;28;20131;-44
2022/05/18 07:36:52;;;;;;;7.65;2.53;;;;;;;;;;5056199;28;20017;-44
2022/05/18 07:39:18;;;;;;;2.20;1.20;;;;;;;;;;5056183;28;20103;-44
2022/05/18 07:41:44;;;;;;;6.47;1.33;;;;;;;;;;5056291;28;20025;-45
2022/05/18 07:44:11;;;;;;;7.93;1.60;;;;;;;;;;5055715;28;20099;-45
2022/05/18 07:46:37;;;;;;;7.43;0.98;;;;;;;;;;5055755;28;20017;-45
2022/05/18 07:49:04;;;;;;;4.35;1.23;;;;;;;;;;5055693;28;20523;-45
2022/05/18 07:51:31;;;;;;;2.90;1.08;;;;;;;;;;5055832;28;20036;-43
2022/05/18 07:53:57;;;;;;;8.15;1.30;;;;;;;;;;5055998;28;20033;-46
2022/05/18 07:56:23;;;;;;;2.55;1.10;;;;;;;;;;5055652;28;20017;-43
2022/05/18 07:58:49;;;;;;;1.88;1.00;;;;;;;;;;5055469;28;20415;-44
2022/05/18 08:01:15;;;;;;;8.43;1.27;;;;;;;;;;5055576;28;20017;-43
2022/05/18 08:03:42;;;;;;;6.10;1.67;;;;;;;;;;5055549;28;20041;-43
2022/05/18 08:06:08;;;;;;;3.85;1.48;;;;;;;;;;5055362;28;20380;-43
2022/05/18 08:08:34;;;;;;;5.53;1.65;;;;;;;;;;5055597;28;20032;-43
2022/05/18 08:16:31;;;;;;;3.05;2.13;;;;;;;;;;5055671;28;20036;-45
2022/05/18 08:19:00;;;;;;;9.02;5.63;;;;;;;;;;5055427;28;20044;-45
2022/05/18 08:21:26;;;;;;;8.25;3.75;;;;;;;;;;5055246;28;20021;-43
2022/05/18 08:23:52;;;;;;;24.30;14.07;;;;;;;;;;5055262;28;20063;-43
2022/05/18 08:26:19;;;;;;;6.35;3.03;;;;;;;;;;5054968;28;20392;-43
2022/05/18 08:28:45;;;;;;;14.05;7.70;;;;;;;;;;5054991;28;20029;-45
2022/05/18 08:31:12;;;;;;;9.52;3.72;;;;;;;;;;5054879;28;20029;-44
2022/05/18 08:33:38;;;;;;;8.38;2.45;;;;;;;;;;5054950;28;20023;-46
2022/05/18 08:36:06;;;;;;;7.32;1.20;;;;;;;;;;5054946;28;20032;-45
2022/05/18 08:38:33;;;;;;;4.32;1.50;;;;;;;;;;5054933;28;20025;-45
2022/05/18 08:41:08;;;;;;;3.10;2.10;;;;;;;;;;5054820;28;20074;-45
2022/05/18 08:43:35;;;;;;;6.07;2.85;;;;;;;;;;5054797;28;20041;-45
2022/05/18 08:46:13;;;;;;;3.38;1.63;;;;;;;;;;5054645;28;20028;-45
2022/05/18 08:48:50;;;;;;;2.92;0.82;;;;;;;;;;5054562;28;20025;-45
2022/05/18 08:51:25;;;;;;;15.80;10.57;;;;;;;;;;5054568;28;20517;-46
2022/05/18 08:54:10;;;;;;;9.00;2.58;;;;;;;;;;5036746;28;20120;-46
2022/05/18 08:56:43;;;;;;;1.95;1.30;;;;;;;;;;5054587;28;20112;-45
2022/05/18 08:59:13;;;;;;;7.65;1.05;;;;;;;;;;5054500;28;20021;-47
2022/05/18 09:01:41;;;;;;;6.27;2.07;;;;;;;;;;5054456;28;20155;-45
2022/05/18 09:04:12;;;;;;;11.10;4.78;;;;;;;;;;5054398;28;20033;-45
2022/05/18 09:06:52;;;;;;;9.18;3.95;;;;;;;;;;5054276;28;20103;-45
2022/05/18 09:12:30;;;;;;;14.05;1.52;;;;;;;;;;5054384;28;20076;-44
2022/05/18 09:14:56;;;;;;;2.88;0.90;;;;;;;;;;5053973;28;20032;-44
2022/05/18 09:17:36;;;;;;;3.88;1.02;;;;;;;;;;5054233;28;20148;-45
2022/05/18 09:20:03;;;;;;;4.70;1.10;;;;;;;;;;5053926;28;20028;-44
2022/05/18 09:22:38;;;;;;;4.18;1.50;;;;;;;;;;5054009;28;20056;-45
2022/05/18 09:25:16;;;;;;;4.80;1.30;;;;;;;;;;5053924;28;20107;-44
2022/05/18 09:27:51;;;;;;;1.92;1.33;;;;;;;;;;5053780;28;20025;-45
2022/05/18 09:30:29;;;;;;;7.35;1.45;;;;;;;;;;5053946;28;20024;-45
2022/05/18 09:33:10;;;;;;;10.13;2.35;;;;;;;;;;5053798;28;20021;-45
2022/05/18 09:35:48;;;;;;;16.60;3.90;;;;;;;;;;5053692;28;20029;-44
2022/05/18 09:38:21;;;;;;;18.92;6.88;;;;;;;;;;5053523;28;20021;-45
2022/05/18 09:40:51;;;;;;;5.60;3.03;;;;;;;;;;5053553;28;20078;-45
2022/05/18 09:43:23;;;;;;;6.80;3.00;;;;;;;;;;5052973;28;20036;-45
2022/05/18 09:45:50;;;;;;;9.55;4.50;;;;;;;;;;5035544;28;20067;-46
2022/05/18 09:48:23;;;;;;;7.03;2.08;;;;;;;;;;5053432;28;20066;-45
2022/05/18 09:50:49;;;;;;;9.50;4.90;;;;;;;;;;5053313;28;20389;-45
2022/05/18 09:53:16;;;;;;;6.80;1.60;;;;;;;;;;5053321;28;20025;-45
2022/05/18 09:55:45;;;;;;;5.28;2.05;;;;;;;;;;5053501;28;20389;-43
2022/05/18 09:58:18;;;;;;;6.13;1.58;;;;;;;;;;5053290;28;20055;-45
2022/05/18 10:00:44;;;;;;;4.78;1.08;;;;;;;;;;5053172;28;20469;-45
2022/05/18 10:08:53;;;;;;;10.90;6.47;;;;;;;;;;5051536;28;20213;-43
2022/05/18 10:11:24;;;;;;;14.60;5.95;;;;;;;;;;5053194;28;20064;-43
2022/05/18 10:13:56;;;;;;;19.02;7.45;;;;;;;;;;5053050;28;20104;-42
2022/05/18 10:16:31;;;;;;;17.48;9.52;;;;;;;;;;5052735;28;20025;-42
2022/05/18 10:18:59;;;;;;;11.32;4.65;;;;;;;;;;5052971;28;20105;-43
2022/05/18 10:21:34;;;;;;;9.32;3.90;;;;;;;;;;5053089;28;20090;-44
2022/05/18 10:24:19;;;;;;;4.75;3.13;;;;;;;;;;5053032;28;20045;-45
2022/05/18 10:26:45;;;;;;;14.95;6.90;;;;;;;;;;5052899;28;20452;-45
2022/05/18 10:29:14;;;;;;;25.58;9.52;;;;;;;;;;5053136;28;20504;-45
2022/05/18 10:31:46;;;;;;;17.48;7.40;;;;;;;;;;5053112;28;20025;-43
2022/05/18 10:34:15;;;;;;;33.13;19.17;;;;;;;;;;5053239;28;20033;-45
2022/05/18 10:36:43;;;;;;;9.88;3.83;;;;;;;;;;5053218;28;20224;-44
2022/05/18 10:39:09;;;;;;;11.23;6.45;;;;;;;;;;5053309;28;20461;-44
2022/05/18 10:41:45;;;;;;;20.15;9.65;;;;;;;;;;5052631;28;20036;-44
2022/05/18 10:44:14;;;;;;;12.02;3.88;;;;;;;;;;5050568;28;20044;-44
2022/05/18 10:46:42;;;;;;;29.75;15.80;;;;;;;;;;5053142;28;20045;-45
2022/05/18 10:49:13;;;;;;;32.20;18.52;;;;;;;;;;5052977;28;20032;-44
2022/05/18 10:51:39;;;;;;;19.42;10.15;;;;;;;;;;5052940;28;20033;-45
2022/05/18 10:54:18;;;;;;;20.52;10.85;;;;;;;;;;5052716;28;20029;-45
2022/05/18 10:56:45;;;;;;;13.32;5.40;;;;;;;;;;5056285;28;20021;-45
2022/05/18 10:59:11;;;;;;;7.90;1.83;;;;;;;;;;5056636;28;20025;-44
2022/05/18 11:01:44;;;;;;;8.60;3.38;;;;;;;;;;5056665;28;20052;-42
2022/05/18 11:04:20;;;;;;;5.13;2.10;;;;;;;;;;5056597;28;20111;-44
2022/05/18 11:06:46;;;;;;;16.30;2.70;;;;;;;;;;5056545;28;20047;-43
2022/05/18 11:09:20;;;;;;;3.60;1.40;;;;;;;;;;5056776;28;20033;-45
2022/05/18 11:12:00;;;;;;;8.27;1.02;;;;;;;;;;5056360;28;20488;-45
2022/05/18 11:14:45;;;;;;;3.80;1.13;;;;;;;;;;5056330;28;20033;-46
2022/05/18 11:17:20;;;;;;;8.82;0.98;;;;;;;;;;5056220;28;20032;-45
2022/05/18 11:19:49;;;;;;;4.10;0.70;;;;;;;;;;5056459;28;20496;-45
2022/05/18 11:22:30;;;;;;;7.40;0.75;;;;;;;;;;5056183;28;20413;-45
2022/05/18 11:25:11;;;;;;;5.88;1.08;;;;;;;;;;5056133;28;20132;-45
2022/05/18 11:27:56;;;;;;;8.10;0.77;;;;;;;;;;5056019;28;20032;-45
2022/05/18 11:30:25;;;;;;;6.90;1.17;;;;;;;;;;5056259;28;20025;-43
2022/05/18 11:33:11;;;;;;;6.97;1.00;;;;;;;;;;5056399;28;20056;-44
2022/05/18 11:35:40;;;;;;;4.70;0.63;;;;;;;;;;5055794;28;20032;-44
2022/05/18 11:38:06;;;;;;;1.17;0.57;;;;;;;;;;5055976;28;20053;-45
2022/05/18 11:40:37;;;;;;;4.07;0.60;;;;;;;;;;5056333;28;20017;-46
2022/05/18 11:43:28;;;;;;;8.50;0.80;;;;;;;;;;5055952;28;20070;-45
2022/05/18 11:45:56;;;;;;;7.07;1.98;;;;;;;;;;5055724;28;20041;-45
2022/05/18 11:48:28;;;;;;;7.03;1.60;;;;;;;;;;5055904;28;20025;-43
2022/05/18 11:51:13;;;;;;;5.93;0.82;;;;;;;;;;5055814;28;20059;-44
2022/05/18 11:53:39;;;;;;;1.02;0.70;;;;;;;;;;5055938;28;20025;-46
2022/05/18 11:56:20;;;;;;;6.35;0.70;;;;;;;;;;5055760;28;20420;-45
2022/05/18 11:58:54;;;;;;;3.78;0.60;;;;;;;;;;5055836;28;20024;-43
2022/05/18 12:01:20;;;;;;;9.73;1.00;;;;;;;;;;5055408;28;20064;-45
2022/05/18 12:03:58;;;;;;;2.45;0.75;;;;;;;;;;5055503;28;20033;-46
2022/05/18 12:06:32;;;;;;;3.75;0.70;;;;;;;;;;5054994;28;20021;-43
2022/05/18 12:09:09;;;;;;;8.77;0.70;;;;;;;;;;5055468;28;20027;-44
2022/05/18 12:11:50;;;;;;;1.02;0.45;;;;;;;;;;5055296;28;20128;-45
2022/05/18 12:14:16;;;;;;;;;;;;;;;;;;5055826;28;20029;-45
2022/05/18 12:16:42;;;;;;;4.18;0.70;;;;;;;;;;5055733;28;20383;-43
2022/05/18 12:19:17;;;;;;;7.22;0.50;;;;;;;;;;5055502;28;20079;-44
2022/05/18 12:21:49;;;;;;;2.45;0.55;;;;;;;;;;5055061;28;20032;-44
2022/05/18 12:24:15;;;;;;;6.82;0.90;;;;;;;;;;5054881;28;20045;-43
2022/05/18 12:26:42;;;;;;;2.53;0.60;;;;;;;;;;5055212;28;20017;-44
2022/05/18 12:29:09;;;;;;;0.85;0.65;;;;;;;;;;5055366;28;20112;-44
2022/05/18 12:31:36;;;;;;;1.35;0.57;;;;;;;;;;5054974;28;20021;-45
2022/05/18 12:34:19;;;;;;;8.07;0.73;;;;;;;;;;5054918;28;20025;-45
2022/05/18 12:36:50;;;;;;;2.83;1.20;;;;;;;;;;5054828;28;20033;-44
2022/05/18 12:39:25;;;;;;;2.60;0.68;;;;;;;;;;5054713;28;20066;-46
2022/05/18 12:41:55;;;;;;;2.40;0.55;;;;;;;;;;5055309;28;20037;-43
2022/05/18 12:44:27;;;;;;;1.50;0.40;;;;;;;;;;5054994;28;20036;-46
2022/05/18 12:47:01;;;;;;;0.80;0.60;;;;;;;;;;5054693;28;20074;-44
2022/05/18 12:49:44;;;;;;;4.90;0.80;;;;;;;;;;5054685;28;20032;-45
2022/05/18 12:52:16;;;;;;;6.15;0.60;;;;;;;;;;5054815;28;20033;-45
2022/05/18 12:54:47;;;;;;;1.08;0.63;;;;;;;;;;5054425;28;20025;-45
2022/05/18 12:57:18;;;;;;;1.90;0.65;;;;;;;;;;5069977;28;20021;-45
2022/05/18 12:59:46;;;;;;;1.45;0.60;;;;;;;;;;5054661;28;20032;-45
2022/05/18 13:02:31;;;;;;;1.77;0.50;;;;;;;;;;5054428;28;20021;-45
2022/05/18 13:04:58;;;;;;;1.35;0.45;;;;;;;;;;5054276;28;20036;-46
2022/05/18 13:07:31;;;;;;;1.88;0.52;;;;;;;;;;5054647;28;20017;-46
2022/05/18 13:10:06;;;;;;;1.63;0.60;;;;;;;;;;5054050;28;20082;-45
2022/05/18 13:12:39;;;;;;;2.22;0.70;;;;;;;;;;5054165;28;20396;-45
2022/05/18 13:15:08;;;;;;;2.20;0.40;;;;;;;;;;5053965;28;20036;-46
2022/05/18 13:17:46;;;;;;;2.33;0.57;;;;;;;;;;5053398;28;20036;-45
2022/05/18 13:20:27;;;;;;;4.30;0.73;;;;;;;;;;5054328;28;20060;-45
2022/05/18 13:23:10;;;;;;;3.17;0.90;;;;;;;;;;5053866;28;20033;-45
2022/05/18 13:25:38;;;;;;;0.88;0.52;;;;;;;;;;5054022;28;20029;-45
2022/05/18 13:28:08;;;;;;;2.80;0.80;;;;;;;;;;5054106;28;20017;-44
2022/05/18 13:30:45;;;;;;;1.60;0.40;;;;;;;;;;5054056;28;20111;-45
2022/05/18 13:33:12;;;;;;;0.50;0.40;;;;;;;;;;5053758;28;20029;-45
2022/05/18 13:35:38;;;;;;;1.77;0.60;;;;;;;;;;5053934;28;20017;-45
2022/05/18 13:38:14;;;;;;;1.90;0.60;;;;;;;;;;5053749;28;20100;-45
2022/05/18 13:40:47;;;;;;;3.60;0.50;;;;;;;;;;5053733;28;20028;-46
2022/05/18 13:43:15;;;;;;;2.95;0.70;;;;;;;;;;5052506;28;20043;-45
2022/05/18 13:46:05;;;;;;;4.07;0.70;;;;;;;;;;5053364;28;20521;-44
2022/05/18 13:48:31;;;;;;;0.70;0.60;;;;;;;;;;4953631;29;20094;-49
2022/05/18 13:51:00;;;;;;;3.83;0.65;;;;;;;;;;4953430;29;20039;-50
2022/05/18 13:53:35;;;;;;;1.65;0.55;;;;;;;;;;4953476;29;20051;-47
2022/05/18 13:56:27;;;;;;;2.45;0.63;;;;;;;;;;4953584;29;20030;-46
2022/05/18 13:58:56;;;;;;;2.63;0.65;;;;;;;;;;4949939;29;20058;-45
2022/05/18 14:01:28;;;;;;;1.90;0.60;;;;;;;;;;4953249;29;20034;-48
2022/05/18 14:03:56;;;;;;;9.52;6.22;;;;;;;;;;4953516;28;20035;-50
2022/05/18 14:06:23;;;;;;;26.60;17.58;;;;;;;;;;4953533;29;20035;-45
2022/05/18 14:08:52;;;;;;;16.75;8.63;;;;;;;;;;4953221;29;20598;-44
2022/05/18 14:11:20;;;;;;;17.17;9.85;;;;;;;;;;4931325;28;20536;-45
2022/05/18 14:13:47;;;;;;;7.40;4.15;;;;;;;;;;4922820;29;20046;-42
2022/05/18 14:16:33;;;;;;;5.22;1.88;;;;;;;;;;4922188;28;20030;-43
2022/05/18 14:19:00;;;;;;;5.38;0.90;;;;;;;;;;4922279;29;20047;-42
2022/05/18 14:21:27;;;;;;;7.20;0.70;;;;;;;;;;4922223;28;20039;-42
2022/05/18 14:23:56;;;;;;;0.75;0.60;;;;;;;;;;4922186;29;20047;-43
2022/05/18 14:26:25;;;;;;;1.95;0.82;;;;;;;;;;5006643;28;20080;-42
2022/05/18 14:28:53;;;;;;;1.27;0.60;;;;;;;;;;5023297;28;20035;-41
2022/05/18 14:31:22;;;;;;;4.20;0.63;;;;;;;;;;5027080;28;20513;-41
2022/05/18 14:33:50;;;;;;;6.13;1.35;;;;;;;;;;5026999;28;20032;-42
2022/05/18 14:36:26;;;;;;;1.98;0.50;;;;;;;;;;5026477;28;20029;-42
2022/05/18 14:38:54;;;;;;;5.28;2.88;;;;;;;;;;5026254;28;20032;-42
2022/05/18 14:41:22;;;;;;;22.90;15.30;;;;;;;;;;5026232;28;20869;-44
2022/05/18 14:43:49;;;;;;;13.40;7.43;;;;;;;;;;5026384;28;20521;-44
2022/05/18 14:46:27;;;;;;;33.83;19.35;;;;;;;;;;5026513;28;20025;-42
2022/05/18 14:49:02;;;;;;;6.07;3.75;;;;;;;;;;5026537;28;20448;-44
2022/05/18 14:51:34;;;;;;;15.23;8.25;;;;;;;;;;5025959;28;20776;-44
2022/05/18 14:54:01;;;;;;;14.90;9.20;;;;;;;;;;5025966;28;20483;-44
2022/05/18 14:56:29;;;;;;;7.10;4.50;;;;;;;;;;5026287;28;20517;-42
2022/05/18 14:58:57;;;;;;;5.05;1.65;;;;;;;;;;5026527;28;20013;-42
2022/05/18 15:01:25;;;;;;;4.65;1.60;;;;;;;;;;5026182;28;20029;-43
2022/05/18 15:03:52;;;;;;;3.75;1.33;;;;;;;;;;5025678;28;20033;-42
2022/05/18 15:06:21;;;;;;;1.45;0.90;;;;;;;;;;5025844;28;20045;-43
2022/05/18 15:08:49;;;;;;;7.05;0.80;;;;;;;;;;5025940;28;20064;-42
2022/05/18 15:11:17;;;;;;;3.60;1.02;;;;;;;;;;5025687;28;20049;-43
2022/05/18 15:14:03;;;;;;;1.75;0.70;;;;;;;;;;5025866;28;20063;-43